sensor_id;sensor_type;location;lat;lon;timestamp;P1;durP1;ratioP1;P2;durP2;ratioP2
60851;SDS011;48553;50.766;2.900;2022-08-03T00:01:42;3.45;;;0.75;;
60851;SDS011;48553;50.766;2.900;2022-08-03T00:04:43;3.30;;;0.63;;
60851;SDS011;48553;50.766;2.900;2022-08-03T00:07:44;3.13;;;1.10;;
60851;SDS011;48553;50.766;2.900;2022-08-03T00:10:44;3.28;;;0.63;;
60851;SDS011;48553;50.766;2.900;2022-08-03T00:13:45;2.97;;;0.90;;
60851;SDS011;48553;50.766;2.900;2022-08-03T00:16:45;4.63;;;0.82;;
60851;SDS011;48553;50.766;2.900;2022-08-03T00:19:46;3.20;;;0.80;;
60851;SDS011;48553;50.766;2.900;2022-08-03T00:22:46;3.38;;;0.77;;
60851;SDS011;48553;50.766;2.900;2022-08-03T00:25:47;3.17;;;0.73;;
60851;SDS011;48553;50.766;2.900;2022-08-03T00:28:48;3.90;;;0.93;;
60851;SDS011;48553;50.766;2.900;2022-08-03T00:31:48;5.07;;;0.98;;
60851;SDS011;48553;50.766;2.900;2022-08-03T00:34:49;4.30;;;0.77;;
60851;SDS011;48553;50.766;2.900;2022-08-03T00:37:49;3.65;;;0.90;;
60851;SDS011;48553;50.766;2.900;2022-08-03T00:40:50;1.40;;;0.70;;
60851;SDS011;48553;50.766;2.900;2022-08-03T00:43:50;3.10;;;0.80;;
60851;SDS011;48553;50.766;2.900;2022-08-03T00:46:51;4.20;;;1.00;;
60851;SDS011;48553;50.766;2.900;2022-08-03T00:49:51;2.35;;;0.85;;
60851;SDS011;48553;50.766;2.900;2022-08-03T00:52:52;2.47;;;0.80;;
60851;SDS011;48553;50.766;2.900;2022-08-03T00:55:54;2.92;;;0.73;;
60851;SDS011;48553;50.766;2.900;2022-08-03T00:58:55;3.05;;;1.00;;
60851;SDS011;48553;50.766;2.900;2022-08-03T01:01:57;5.47;;;1.00;;
60851;SDS011;48553;50.766;2.900;2022-08-03T01:04:58;3.42;;;0.90;;
60851;SDS011;48553;50.766;2.900;2022-08-03T01:08:07;3.47;;;0.77;;
60851;SDS011;48553;50.766;2.900;2022-08-03T01:17:48;4.28;;;0.90;;
60851;SDS011;48553;50.766;2.900;2022-08-03T01:20:55;4.63;;;1.00;;
60851;SDS011;48553;50.766;2.900;2022-08-03T01:24:15;3.10;;;0.90;;
60851;SDS011;48553;50.766;2.900;2022-08-03T01:31:06;2.47;;;0.80;;
60851;SDS011;48553;50.766;2.900;2022-08-03T01:34:09;4.22;;;1.08;;
60851;SDS011;48553;50.766;2.900;2022-08-03T01:37:15;2.53;;;0.90;;
60851;SDS011;48553;50.766;2.900;2022-08-03T01:40:24;3.67;;;1.00;;
60851;SDS011;48553;50.766;2.900;2022-08-03T01:43:27;4.10;;;0.80;;
60851;SDS011;48553;50.766;2.900;2022-08-03T01:46:29;3.45;;;1.02;;
60851;SDS011;48553;50.766;2.900;2022-08-03T01:49:32;2.88;;;0.85;;
60851;SDS011;48553;50.766;2.900;2022-08-03T01:52:38;3.60;;;1.08;;
60851;SDS011;48553;50.766;2.900;2022-08-03T01:55:42;4.10;;;1.00;;
60851;SDS011;48553;50.766;2.900;2022-08-03T01:58:45;4.13;;;1.00;;
60851;SDS011;48553;50.766;2.900;2022-08-03T02:01:48;3.50;;;0.80;;
60851;SDS011;48553;50.766;2.900;2022-08-03T02:04:49;4.93;;;1.10;;
60851;SDS011;48553;50.766;2.900;2022-08-03T02:07:53;4.05;;;0.95;;
60851;SDS011;48553;50.766;2.900;2022-08-03T02:10:54;3.08;;;0.82;;
60851;SDS011;48553;50.766;2.900;2022-08-03T02:13:57;4.13;;;1.00;;
60851;SDS011;48553;50.766;2.900;2022-08-03T02:17:00;2.80;;;1.08;;
60851;SDS011;48553;50.766;2.900;2022-08-03T02:20:01;3.72;;;0.90;;
60851;SDS011;48553;50.766;2.900;2022-08-03T02:23:03;3.15;;;1.00;;
60851;SDS011;48553;50.766;2.900;2022-08-03T02:26:05;3.47;;;1.00;;
60851;SDS011;48553;50.766;2.900;2022-08-03T02:29:13;3.42;;;1.00;;
60851;SDS011;48553;50.766;2.900;2022-08-03T02:32:20;5.13;;;1.00;;
60851;SDS011;48553;50.766;2.900;2022-08-03T02:35:27;4.30;;;0.90;;
60851;SDS011;48553;50.766;2.900;2022-08-03T02:38:33;4.20;;;1.10;;
60851;SDS011;48553;50.766;2.900;2022-08-03T02:41:36;3.20;;;0.90;;
60851;SDS011;48553;50.766;2.900;2022-08-03T02:44:40;1.98;;;0.80;;
60851;SDS011;48553;50.766;2.900;2022-08-03T02:47:46;3.58;;;0.88;;
60851;SDS011;48553;50.766;2.900;2022-08-03T02:50:50;4.28;;;1.08;;
60851;SDS011;48553;50.766;2.900;2022-08-03T02:53:53;3.00;;;1.10;;
60851;SDS011;48553;50.766;2.900;2022-08-03T02:56:56;3.90;;;1.20;;
60851;SDS011;48553;50.766;2.900;2022-08-03T02:59:57;3.70;;;0.82;;
60851;SDS011;48553;50.766;2.900;2022-08-03T03:03:00;2.33;;;0.80;;
60851;SDS011;48553;50.766;2.900;2022-08-03T03:06:03;2.42;;;0.93;;
60851;SDS011;48553;50.766;2.900;2022-08-03T03:09:05;2.55;;;1.05;;
60851;SDS011;48553;50.766;2.900;2022-08-03T03:12:07;4.07;;;1.10;;
60851;SDS011;48553;50.766;2.900;2022-08-03T03:15:09;3.80;;;1.00;;
60851;SDS011;48553;50.766;2.900;2022-08-03T03:18:10;3.15;;;1.15;;
60851;SDS011;48553;50.766;2.900;2022-08-03T03:21:11;4.15;;;1.17;;
60851;SDS011;48553;50.766;2.900;2022-08-03T03:24:15;3.10;;;1.00;;
60851;SDS011;48553;50.766;2.900;2022-08-03T03:27:16;3.80;;;1.10;;
60851;SDS011;48553;50.766;2.900;2022-08-03T03:30:17;4.63;;;1.00;;
60851;SDS011;48553;50.766;2.900;2022-08-03T03:33:17;4.85;;;1.15;;
60851;SDS011;48553;50.766;2.900;2022-08-03T03:36:18;3.40;;;1.10;;
60851;SDS011;48553;50.766;2.900;2022-08-03T03:39:19;4.85;;;1.08;;
60851;SDS011;48553;50.766;2.900;2022-08-03T03:42:19;4.82;;;1.17;;
60851;SDS011;48553;50.766;2.900;2022-08-03T03:45:20;5.15;;;1.08;;
60851;SDS011;48553;50.766;2.900;2022-08-03T03:48:21;4.22;;;1.20;;
60851;SDS011;48553;50.766;2.900;2022-08-03T03:51:23;6.45;;;1.30;;
60851;SDS011;48553;50.766;2.900;2022-08-03T03:54:23;4.95;;;1.17;;
60851;SDS011;48553;50.766;2.900;2022-08-03T03:57:24;4.13;;;0.90;;
60851;SDS011;48553;50.766;2.900;2022-08-03T04:00:25;4.53;;;1.30;;
60851;SDS011;48553;50.766;2.900;2022-08-03T04:03:25;3.78;;;1.00;;
60851;SDS011;48553;50.766;2.900;2022-08-03T04:06:26;6.40;;;1.40;;
60851;SDS011;48553;50.766;2.900;2022-08-03T04:09:45;4.25;;;1.20;;
60851;SDS011;48553;50.766;2.900;2022-08-03T04:13:08;5.40;;;1.13;;
60851;SDS011;48553;50.766;2.900;2022-08-03T04:16:11;5.07;;;1.10;;
60851;SDS011;48553;50.766;2.900;2022-08-03T04:22:49;3.47;;;1.00;;
60851;SDS011;48553;50.766;2.900;2022-08-03T04:25:51;4.15;;;1.20;;
60851;SDS011;48553;50.766;2.900;2022-08-03T04:28:53;6.38;;;1.33;;
60851;SDS011;48553;50.766;2.900;2022-08-03T04:31:54;5.72;;;1.23;;
60851;SDS011;48553;50.766;2.900;2022-08-03T04:34:57;3.78;;;1.25;;
60851;SDS011;48553;50.766;2.900;2022-08-03T04:38:00;4.35;;;1.30;;
60851;SDS011;48553;50.766;2.900;2022-08-03T04:41:06;4.45;;;1.30;;
60851;SDS011;48553;50.766;2.900;2022-08-03T04:44:08;6.70;;;1.30;;
60851;SDS011;48553;50.766;2.900;2022-08-03T04:47:10;5.93;;;1.23;;
60851;SDS011;48553;50.766;2.900;2022-08-03T04:50:10;4.25;;;1.30;;
60851;SDS011;48553;50.766;2.900;2022-08-03T04:53:12;6.63;;;1.30;;
60851;SDS011;48553;50.766;2.900;2022-08-03T04:56:12;3.03;;;1.30;;
60851;SDS011;48553;50.766;2.900;2022-08-03T04:59:12;6.10;;;1.20;;
60851;SDS011;48553;50.766;2.900;2022-08-03T05:02:13;3.45;;;1.15;;
60851;SDS011;48553;50.766;2.900;2022-08-03T05:05:15;6.35;;;1.27;;
60851;SDS011;48553;50.766;2.900;2022-08-03T05:08:16;3.28;;;1.23;;
60851;SDS011;48553;50.766;2.900;2022-08-03T05:11:17;5.82;;;1.48;;
60851;SDS011;48553;50.766;2.900;2022-08-03T05:14:17;3.65;;;0.98;;
60851;SDS011;48553;50.766;2.900;2022-08-03T05:17:17;3.97;;;1.10;;
60851;SDS011;48553;50.766;2.900;2022-08-03T05:20:18;4.90;;;1.48;;
60851;SDS011;48553;50.766;2.900;2022-08-03T05:23:19;5.47;;;1.23;;
60851;SDS011;48553;50.766;2.900;2022-08-03T05:26:19;3.35;;;0.95;;
60851;SDS011;48553;50.766;2.900;2022-08-03T05:29:20;4.25;;;1.35;;
60851;SDS011;48553;50.766;2.900;2022-08-03T05:32:20;4.60;;;1.42;;
60851;SDS011;48553;50.766;2.900;2022-08-03T05:35:21;5.93;;;1.38;;
60851;SDS011;48553;50.766;2.900;2022-08-03T05:38:24;4.53;;;1.20;;
60851;SDS011;48553;50.766;2.900;2022-08-03T05:41:25;6.00;;;1.30;;
60851;SDS011;48553;50.766;2.900;2022-08-03T05:44:25;4.45;;;1.40;;
60851;SDS011;48553;50.766;2.900;2022-08-03T05:47:26;3.78;;;1.25;;
60851;SDS011;48553;50.766;2.900;2022-08-03T05:50:26;3.72;;;1.20;;
60851;SDS011;48553;50.766;2.900;2022-08-03T05:53:26;4.82;;;1.50;;
60851;SDS011;48553;50.766;2.900;2022-08-03T05:56:27;7.65;;;1.38;;
60851;SDS011;48553;50.766;2.900;2022-08-03T05:59:27;3.15;;;1.20;;
60851;SDS011;48553;50.766;2.900;2022-08-03T06:02:28;7.85;;;1.33;;
60851;SDS011;48553;50.766;2.900;2022-08-03T06:05:29;7.93;;;1.58;;
60851;SDS011;48553;50.766;2.900;2022-08-03T06:08:30;6.40;;;1.50;;
60851;SDS011;48553;50.766;2.900;2022-08-03T06:11:30;7.28;;;1.60;;
60851;SDS011;48553;50.766;2.900;2022-08-03T06:14:31;7.32;;;1.60;;
60851;SDS011;48553;50.766;2.900;2022-08-03T06:17:31;5.43;;;1.30;;
60851;SDS011;48553;50.766;2.900;2022-08-03T06:20:31;6.32;;;1.52;;
60851;SDS011;48553;50.766;2.900;2022-08-03T06:23:32;5.55;;;1.70;;
60851;SDS011;48553;50.766;2.900;2022-08-03T06:26:33;4.20;;;1.38;;
60851;SDS011;48553;50.766;2.900;2022-08-03T06:29:34;6.05;;;1.60;;
60851;SDS011;48553;50.766;2.900;2022-08-03T06:32:37;4.85;;;1.48;;
60851;SDS011;48553;50.766;2.900;2022-08-03T06:35:41;5.80;;;1.55;;
60851;SDS011;48553;50.766;2.900;2022-08-03T06:38:41;3.85;;;1.50;;
60851;SDS011;48553;50.766;2.900;2022-08-03T06:41:42;4.20;;;1.60;;
60851;SDS011;48553;50.766;2.900;2022-08-03T06:44:42;5.18;;;1.67;;
60851;SDS011;48553;50.766;2.900;2022-08-03T06:47:42;4.88;;;1.67;;
60851;SDS011;48553;50.766;2.900;2022-08-03T06:50:43;5.25;;;1.45;;
60851;SDS011;48553;50.766;2.900;2022-08-03T06:53:43;5.82;;;1.45;;
60851;SDS011;48553;50.766;2.900;2022-08-03T06:56:44;6.75;;;1.83;;
60851;SDS011;48553;50.766;2.900;2022-08-03T06:59:44;7.78;;;1.50;;
60851;SDS011;48553;50.766;2.900;2022-08-03T07:02:45;7.82;;;1.90;;
60851;SDS011;48553;50.766;2.900;2022-08-03T07:05:45;6.13;;;1.50;;
60851;SDS011;48553;50.766;2.900;2022-08-03T07:08:46;7.82;;;1.75;;
60851;SDS011;48553;50.766;2.900;2022-08-03T07:11:46;4.72;;;1.58;;
60851;SDS011;48553;50.766;2.900;2022-08-03T07:14:47;6.75;;;1.70;;
60851;SDS011;48553;50.766;2.900;2022-08-03T07:17:47;7.18;;;1.60;;
60851;SDS011;48553;50.766;2.900;2022-08-03T07:20:47;8.90;;;1.63;;
60851;SDS011;48553;50.766;2.900;2022-08-03T07:23:48;10.13;;;1.80;;
60851;SDS011;48553;50.766;2.900;2022-08-03T07:26:48;7.53;;;1.63;;
60851;SDS011;48553;50.766;2.900;2022-08-03T07:29:49;9.00;;;1.60;;
60851;SDS011;48553;50.766;2.900;2022-08-03T07:32:49;3.97;;;1.38;;
60851;SDS011;48553;50.766;2.900;2022-08-03T07:35:49;6.78;;;1.50;;
60851;SDS011;48553;50.766;2.900;2022-08-03T07:38:50;8.85;;;1.52;;
60851;SDS011;48553;50.766;2.900;2022-08-03T07:41:50;5.60;;;1.25;;
60851;SDS011;48553;50.766;2.900;2022-08-03T07:44:51;8.98;;;1.60;;
60851;SDS011;48553;50.766;2.900;2022-08-03T07:47:51;8.10;;;1.63;;
60851;SDS011;48553;50.766;2.900;2022-08-03T07:50:52;7.93;;;1.33;;
60851;SDS011;48553;50.766;2.900;2022-08-03T07:53:52;8.38;;;1.60;;
60851;SDS011;48553;50.766;2.900;2022-08-03T07:56:54;8.30;;;1.42;;
60851;SDS011;48553;50.766;2.900;2022-08-03T07:59:54;6.35;;;1.48;;
60851;SDS011;48553;50.766;2.900;2022-08-03T08:02:55;6.50;;;1.50;;
60851;SDS011;48553;50.766;2.900;2022-08-03T08:05:55;7.07;;;1.65;;
60851;SDS011;48553;50.766;2.900;2022-08-03T08:08:55;6.88;;;1.50;;
60851;SDS011;48553;50.766;2.900;2022-08-03T08:12:00;7.78;;;1.67;;
60851;SDS011;48553;50.766;2.900;2022-08-03T08:15:01;7.43;;;1.55;;
60851;SDS011;48553;50.766;2.900;2022-08-03T08:18:02;9.45;;;1.40;;
60851;SDS011;48553;50.766;2.900;2022-08-03T08:21:02;6.65;;;1.33;;
60851;SDS011;48553;50.766;2.900;2022-08-03T08:24:04;7.93;;;1.75;;
60851;SDS011;48553;50.766;2.900;2022-08-03T08:27:04;4.80;;;1.42;;
60851;SDS011;48553;50.766;2.900;2022-08-03T08:30:05;5.18;;;1.30;;
60851;SDS011;48553;50.766;2.900;2022-08-03T08:33:06;6.75;;;1.50;;
60851;SDS011;48553;50.766;2.900;2022-08-03T08:36:06;7.03;;;1.58;;
60851;SDS011;48553;50.766;2.900;2022-08-03T08:39:07;6.18;;;1.48;;
60851;SDS011;48553;50.766;2.900;2022-08-03T08:42:08;5.93;;;1.40;;
60851;SDS011;48553;50.766;2.900;2022-08-03T08:45:09;5.97;;;1.25;;
60851;SDS011;48553;50.766;2.900;2022-08-03T08:48:11;7.82;;;1.63;;
60851;SDS011;48553;50.766;2.900;2022-08-03T08:51:12;6.60;;;1.33;;
60851;SDS011;48553;50.766;2.900;2022-08-03T08:54:16;6.32;;;1.23;;
60851;SDS011;48553;50.766;2.900;2022-08-03T09:00:21;6.63;;;1.52;;
60851;SDS011;48553;50.766;2.900;2022-08-03T09:03:21;7.65;;;1.30;;
60851;SDS011;48553;50.766;2.900;2022-08-03T09:06:22;9.15;;;1.30;;
60851;SDS011;48553;50.766;2.900;2022-08-03T09:09:23;5.43;;;1.27;;
60851;SDS011;48553;50.766;2.900;2022-08-03T09:12:23;8.15;;;1.50;;
60851;SDS011;48553;50.766;2.900;2022-08-03T09:15:25;5.63;;;1.20;;
60851;SDS011;48553;50.766;2.900;2022-08-03T09:18:27;5.63;;;1.20;;
60851;SDS011;48553;50.766;2.900;2022-08-03T09:21:29;5.53;;;1.30;;
60851;SDS011;48553;50.766;2.900;2022-08-03T09:24:30;7.95;;;1.00;;
60851;SDS011;48553;50.766;2.900;2022-08-03T09:27:40;6.20;;;1.10;;
60851;SDS011;48553;50.766;2.900;2022-08-03T09:30:43;5.47;;;1.33;;
60851;SDS011;48553;50.766;2.900;2022-08-03T09:33:47;5.00;;;1.10;;
60851;SDS011;48553;50.766;2.900;2022-08-03T09:36:48;5.38;;;1.15;;
60851;SDS011;48553;50.766;2.900;2022-08-03T09:39:49;3.95;;;1.33;;
60851;SDS011;48553;50.766;2.900;2022-08-03T09:42:55;6.90;;;1.20;;
60851;SDS011;48553;50.766;2.900;2022-08-03T09:46:03;4.13;;;1.00;;
60851;SDS011;48553;50.766;2.900;2022-08-03T09:49:07;7.57;;;1.50;;
60851;SDS011;48553;50.766;2.900;2022-08-03T09:52:13;6.65;;;1.30;;
60851;SDS011;48553;50.766;2.900;2022-08-03T09:55:14;6.70;;;1.35;;
60851;SDS011;48553;50.766;2.900;2022-08-03T09:58:15;5.53;;;1.05;;
60851;SDS011;48553;50.766;2.900;2022-08-03T10:01:16;4.65;;;1.20;;
60851;SDS011;48553;50.766;2.900;2022-08-03T10:04:16;6.30;;;1.30;;
60851;SDS011;48553;50.766;2.900;2022-08-03T10:07:18;5.07;;;1.10;;
60851;SDS011;48553;50.766;2.900;2022-08-03T10:10:20;4.20;;;1.20;;
60851;SDS011;48553;50.766;2.900;2022-08-03T10:13:21;6.50;;;1.20;;
60851;SDS011;48553;50.766;2.900;2022-08-03T10:16:22;4.30;;;1.00;;
60851;SDS011;48553;50.766;2.900;2022-08-03T10:19:22;6.32;;;1.20;;
60851;SDS011;48553;50.766;2.900;2022-08-03T10:22:28;4.95;;;1.10;;
60851;SDS011;48553;50.766;2.900;2022-08-03T10:25:33;6.05;;;1.17;;
60851;SDS011;48553;50.766;2.900;2022-08-03T10:28:44;5.35;;;1.10;;
60851;SDS011;48553;50.766;2.900;2022-08-03T10:31:48;4.25;;;1.20;;
60851;SDS011;48553;50.766;2.900;2022-08-03T10:34:53;3.42;;;1.00;;
60851;SDS011;48553;50.766;2.900;2022-08-03T10:38:08;4.80;;;0.98;;
60851;SDS011;48553;50.766;2.900;2022-08-03T10:41:15;3.80;;;1.00;;
60851;SDS011;48553;50.766;2.900;2022-08-03T10:44:22;5.88;;;1.10;;
60851;SDS011;48553;50.766;2.900;2022-08-03T10:47:29;6.30;;;1.10;;
60851;SDS011;48553;50.766;2.900;2022-08-03T10:50:30;5.72;;;1.00;;
60851;SDS011;48553;50.766;2.900;2022-08-03T10:53:36;5.28;;;1.20;;
60851;SDS011;48553;50.766;2.900;2022-08-03T10:56:38;3.83;;;1.00;;
60851;SDS011;48553;50.766;2.900;2022-08-03T10:59:58;3.75;;;1.10;;
60851;SDS011;48553;50.766;2.900;2022-08-03T11:06:14;4.95;;;0.88;;
60851;SDS011;48553;50.766;2.900;2022-08-03T11:09:17;3.60;;;1.00;;
60851;SDS011;48553;50.766;2.900;2022-08-03T11:12:28;4.20;;;1.00;;
60851;SDS011;48553;50.766;2.900;2022-08-03T11:15:31;5.47;;;1.00;;
60851;SDS011;48553;50.766;2.900;2022-08-03T11:18:32;4.00;;;0.82;;
60851;SDS011;48553;50.766;2.900;2022-08-03T11:28:23;5.90;;;1.00;;
60851;SDS011;48553;50.766;2.900;2022-08-03T11:34:29;3.70;;;1.00;;
60851;SDS011;48553;50.766;2.900;2022-08-03T11:37:29;4.90;;;0.93;;
60851;SDS011;48553;50.766;2.900;2022-08-03T11:43:48;2.72;;;0.90;;
60851;SDS011;48553;50.766;2.900;2022-08-03T11:46:49;3.70;;;0.90;;
60851;SDS011;48553;50.766;2.900;2022-08-03T11:49:50;5.32;;;1.27;;
60851;SDS011;48553;50.766;2.900;2022-08-03T11:52:52;3.85;;;1.00;;
60851;SDS011;48553;50.766;2.900;2022-08-03T11:55:56;5.53;;;1.40;;
60851;SDS011;48553;50.766;2.900;2022-08-03T11:58:58;3.08;;;1.10;;
60851;SDS011;48553;50.766;2.900;2022-08-03T12:02:09;3.03;;;1.13;;
60851;SDS011;48553;50.766;2.900;2022-08-03T12:05:10;5.63;;;1.15;;
60851;SDS011;48553;50.766;2.900;2022-08-03T12:08:12;2.78;;;1.00;;
60851;SDS011;48553;50.766;2.900;2022-08-03T12:11:16;4.13;;;1.00;;
60851;SDS011;48553;50.766;2.900;2022-08-03T12:14:17;8.32;;;1.17;;
60851;SDS011;48553;50.766;2.900;2022-08-03T12:17:19;5.68;;;1.25;;
60851;SDS011;48553;50.766;2.900;2022-08-03T12:20:21;5.63;;;1.10;;
60851;SDS011;48553;50.766;2.900;2022-08-03T12:23:25;3.60;;;0.90;;
60851;SDS011;48553;50.766;2.900;2022-08-03T12:26:27;5.60;;;0.80;;
60851;SDS011;48553;50.766;2.900;2022-08-03T12:29:28;4.53;;;1.02;;
60851;SDS011;48553;50.766;2.900;2022-08-03T12:32:29;4.72;;;1.13;;
60851;SDS011;48553;50.766;2.900;2022-08-03T12:35:30;3.90;;;0.98;;
60851;SDS011;48553;50.766;2.900;2022-08-03T12:38:31;5.15;;;1.08;;
60851;SDS011;48553;50.766;2.900;2022-08-03T12:41:34;5.60;;;0.98;;
60851;SDS011;48553;50.766;2.900;2022-08-03T12:44:36;5.20;;;1.17;;
60851;SDS011;48553;50.766;2.900;2022-08-03T12:51:12;3.00;;;0.85;;
60851;SDS011;48553;50.766;2.900;2022-08-03T12:54:19;3.08;;;0.90;;
60851;SDS011;48553;50.766;2.900;2022-08-03T12:57:21;3.58;;;0.93;;
60851;SDS011;48553;50.766;2.900;2022-08-03T13:00:21;2.85;;;0.90;;
60851;SDS011;48553;50.766;2.900;2022-08-03T13:03:25;2.97;;;0.90;;
60851;SDS011;48553;50.766;2.900;2022-08-03T13:06:26;3.58;;;1.00;;
60851;SDS011;48553;50.766;2.900;2022-08-03T13:09:27;3.28;;;0.80;;
60851;SDS011;48553;50.766;2.900;2022-08-03T13:12:28;4.82;;;0.98;;
60851;SDS011;48553;50.766;2.900;2022-08-03T13:15:29;3.10;;;0.80;;
60851;SDS011;48553;50.766;2.900;2022-08-03T13:18:30;3.40;;;0.90;;
60851;SDS011;48553;50.766;2.900;2022-08-03T13:21:30;2.88;;;0.80;;
60851;SDS011;48553;50.766;2.900;2022-08-03T13:24:32;2.92;;;0.88;;
60851;SDS011;48553;50.766;2.900;2022-08-03T13:27:32;5.07;;;1.00;;
60851;SDS011;48553;50.766;2.900;2022-08-03T13:30:32;2.35;;;0.88;;
60851;SDS011;48553;50.766;2.900;2022-08-03T13:33:33;4.00;;;0.80;;
60851;SDS011;48553;50.766;2.900;2022-08-03T13:36:34;3.58;;;1.00;;
60851;SDS011;48553;50.766;2.900;2022-08-03T13:39:34;3.67;;;0.88;;
60851;SDS011;48553;50.766;2.900;2022-08-03T13:42:35;4.85;;;0.90;;
60851;SDS011;48553;50.766;2.900;2022-08-03T13:45:35;2.72;;;0.80;;
60851;SDS011;48553;50.766;2.900;2022-08-03T13:48:36;2.60;;;0.80;;
60851;SDS011;48553;50.766;2.900;2022-08-03T13:51:36;2.97;;;0.90;;
60851;SDS011;48553;50.766;2.900;2022-08-03T13:54:37;2.97;;;1.00;;
60851;SDS011;48553;50.766;2.900;2022-08-03T13:57:37;3.47;;;0.88;;
60851;SDS011;48553;50.766;2.900;2022-08-03T14:00:38;1.80;;;0.90;;
60851;SDS011;48553;50.766;2.900;2022-08-03T14:03:38;2.10;;;0.80;;
60851;SDS011;48553;50.766;2.900;2022-08-03T14:06:39;3.38;;;0.95;;
60851;SDS011;48553;50.766;2.900;2022-08-03T14:09:39;4.10;;;0.80;;
60851;SDS011;48553;50.766;2.900;2022-08-03T14:12:40;3.40;;;0.80;;
60851;SDS011;48553;50.766;2.900;2022-08-03T14:15:40;2.88;;;0.73;;
60851;SDS011;48553;50.766;2.900;2022-08-03T14:18:41;3.45;;;0.93;;
60851;SDS011;48553;50.766;2.900;2022-08-03T14:21:41;2.78;;;0.70;;
60851;SDS011;48553;50.766;2.900;2022-08-03T14:24:42;3.50;;;0.90;;
60851;SDS011;48553;50.766;2.900;2022-08-03T14:27:42;2.33;;;0.80;;
60851;SDS011;48553;50.766;2.900;2022-08-03T14:30:43;4.03;;;0.77;;
60851;SDS011;48553;50.766;2.900;2022-08-03T14:33:43;3.55;;;0.70;;
60851;SDS011;48553;50.766;2.900;2022-08-03T14:36:43;3.65;;;0.80;;
60851;SDS011;48553;50.766;2.900;2022-08-03T14:39:46;3.05;;;0.77;;
60851;SDS011;48553;50.766;2.900;2022-08-03T14:42:47;2.67;;;0.70;;
60851;SDS011;48553;50.766;2.900;2022-08-03T14:45:51;5.30;;;0.60;;
60851;SDS011;48553;50.766;2.900;2022-08-03T14:48:52;2.20;;;0.77;;
60851;SDS011;48553;50.766;2.900;2022-08-03T14:51:52;2.33;;;0.60;;
60851;SDS011;48553;50.766;2.900;2022-08-03T14:54:53;1.73;;;0.70;;
60851;SDS011;48553;50.766;2.900;2022-08-03T14:57:53;7.25;;;0.80;;
60851;SDS011;48553;50.766;2.900;2022-08-03T15:00:54;3.67;;;0.60;;
60851;SDS011;48553;50.766;2.900;2022-08-03T15:03:55;4.38;;;0.70;;
60851;SDS011;48553;50.766;2.900;2022-08-03T15:06:55;3.55;;;0.85;;
60851;SDS011;48553;50.766;2.900;2022-08-03T15:09:56;3.90;;;0.80;;
60851;SDS011;48553;50.766;2.900;2022-08-03T15:12:56;2.10;;;0.77;;
60851;SDS011;48553;50.766;2.900;2022-08-03T15:15:57;2.20;;;0.65;;
60851;SDS011;48553;50.766;2.900;2022-08-03T15:18:57;6.10;;;0.70;;
60851;SDS011;48553;50.766;2.900;2022-08-03T15:21:59;2.75;;;0.70;;
60851;SDS011;48553;50.766;2.900;2022-08-03T15:25:01;2.47;;;0.60;;
60851;SDS011;48553;50.766;2.900;2022-08-03T15:28:04;1.13;;;0.60;;
60851;SDS011;48553;50.766;2.900;2022-08-03T15:31:04;1.17;;;0.47;;
60851;SDS011;48553;50.766;2.900;2022-08-03T15:34:05;2.03;;;0.60;;
60851;SDS011;48553;50.766;2.900;2022-08-03T15:37:06;4.57;;;0.70;;
60851;SDS011;48553;50.766;2.900;2022-08-03T15:40:06;5.88;;;0.85;;
60851;SDS011;48553;50.766;2.900;2022-08-03T15:43:07;2.75;;;0.43;;
60851;SDS011;48553;50.766;2.900;2022-08-03T15:46:07;3.05;;;0.90;;
60851;SDS011;48553;50.766;2.900;2022-08-03T15:49:08;1.20;;;0.40;;
60851;SDS011;48553;50.766;2.900;2022-08-03T15:52:08;4.50;;;0.80;;
60851;SDS011;48553;50.766;2.900;2022-08-03T15:55:09;3.30;;;0.50;;
60851;SDS011;48553;50.766;2.900;2022-08-03T15:58:10;2.67;;;0.75;;
60851;SDS011;48553;50.766;2.900;2022-08-03T16:01:10;3.45;;;0.80;;
60851;SDS011;48553;50.766;2.900;2022-08-03T16:04:11;4.72;;;0.70;;
60851;SDS011;48553;50.766;2.900;2022-08-03T16:07:11;3.72;;;0.70;;
60851;SDS011;48553;50.766;2.900;2022-08-03T16:10:15;4.57;;;0.83;;
60851;SDS011;48553;50.766;2.900;2022-08-03T16:13:16;2.17;;;0.70;;
60851;SDS011;48553;50.766;2.900;2022-08-03T16:16:16;2.65;;;0.70;;
60851;SDS011;48553;50.766;2.900;2022-08-03T16:19:17;2.15;;;0.80;;
60851;SDS011;48553;50.766;2.900;2022-08-03T16:22:17;2.33;;;0.60;;
60851;SDS011;48553;50.766;2.900;2022-08-03T16:25:18;2.58;;;0.77;;
60851;SDS011;48553;50.766;2.900;2022-08-03T16:28:18;3.83;;;0.70;;
60851;SDS011;48553;50.766;2.900;2022-08-03T16:31:19;2.95;;;0.70;;
60851;SDS011;48553;50.766;2.900;2022-08-03T16:34:21;3.97;;;0.98;;
60851;SDS011;48553;50.766;2.900;2022-08-03T16:37:21;3.58;;;0.90;;
60851;SDS011;48553;50.766;2.900;2022-08-03T16:40:22;3.90;;;0.90;;
60851;SDS011;48553;50.766;2.900;2022-08-03T16:43:23;1.95;;;0.70;;
60851;SDS011;48553;50.766;2.900;2022-08-03T16:46:24;2.72;;;0.73;;
60851;SDS011;48553;50.766;2.900;2022-08-03T16:49:24;4.72;;;0.90;;
60851;SDS011;48553;50.766;2.900;2022-08-03T16:52:25;2.13;;;0.88;;
60851;SDS011;48553;50.766;2.900;2022-08-03T16:55:25;3.20;;;0.88;;
60851;SDS011;48553;50.766;2.900;2022-08-03T16:58:26;2.55;;;0.70;;
60851;SDS011;48553;50.766;2.900;2022-08-03T17:01:26;2.83;;;0.93;;
60851;SDS011;48553;50.766;2.900;2022-08-03T17:04:27;2.22;;;0.55;;
60851;SDS011;48553;50.766;2.900;2022-08-03T17:07:29;2.85;;;0.82;;
60851;SDS011;48553;50.766;2.900;2022-08-03T17:10:29;3.05;;;1.00;;
60851;SDS011;48553;50.766;2.900;2022-08-03T17:13:30;2.67;;;0.80;;
60851;SDS011;48553;50.766;2.900;2022-08-03T17:16:30;3.25;;;0.90;;
60851;SDS011;48553;50.766;2.900;2022-08-03T17:19:31;4.35;;;1.13;;
60851;SDS011;48553;50.766;2.900;2022-08-03T17:22:36;2.17;;;1.00;;
60851;SDS011;48553;50.766;2.900;2022-08-03T17:25:44;2.83;;;1.17;;
60851;SDS011;48553;50.766;2.900;2022-08-03T17:28:46;2.85;;;1.05;;
60851;SDS011;48553;50.766;2.900;2022-08-03T17:31:49;3.58;;;0.95;;
60851;SDS011;48553;50.766;2.900;2022-08-03T17:34:50;2.72;;;0.90;;
60851;SDS011;48553;50.766;2.900;2022-08-03T17:37:51;3.35;;;0.90;;
60851;SDS011;48553;50.766;2.900;2022-08-03T17:40:51;3.25;;;1.00;;
60851;SDS011;48553;50.766;2.900;2022-08-03T17:43:55;3.75;;;1.00;;
60851;SDS011;48553;50.766;2.900;2022-08-03T17:46:56;3.00;;;1.00;;
60851;SDS011;48553;50.766;2.900;2022-08-03T17:49:57;5.38;;;1.92;;
60851;SDS011;48553;50.766;2.900;2022-08-03T17:53:03;4.75;;;1.20;;
60851;SDS011;48553;50.766;2.900;2022-08-03T17:59:36;6.10;;;1.60;;
60851;SDS011;48553;50.766;2.900;2022-08-03T18:02:52;6.55;;;1.50;;
60851;SDS011;48553;50.766;2.900;2022-08-03T18:06:16;5.78;;;1.63;;
60851;SDS011;48553;50.766;2.900;2022-08-03T18:09:19;6.38;;;1.80;;
60851;SDS011;48553;50.766;2.900;2022-08-03T18:12:25;9.85;;;1.70;;
60851;SDS011;48553;50.766;2.900;2022-08-03T18:15:27;4.88;;;1.45;;
60851;SDS011;48553;50.766;2.900;2022-08-03T18:18:34;5.13;;;1.65;;
60851;SDS011;48553;50.766;2.900;2022-08-03T18:21:43;6.50;;;1.60;;
60851;SDS011;48553;50.766;2.900;2022-08-03T18:24:48;5.80;;;1.52;;
60851;SDS011;48553;50.766;2.900;2022-08-03T18:27:49;4.35;;;1.45;;
60851;SDS011;48553;50.766;2.900;2022-08-03T18:30:52;6.75;;;1.58;;
60851;SDS011;48553;50.766;2.900;2022-08-03T18:33:53;5.38;;;1.50;;
60851;SDS011;48553;50.766;2.900;2022-08-03T18:36:54;6.72;;;1.70;;
60851;SDS011;48553;50.766;2.900;2022-08-03T18:39:56;4.82;;;1.70;;
60851;SDS011;48553;50.766;2.900;2022-08-03T18:42:56;5.70;;;1.60;;
60851;SDS011;48553;50.766;2.900;2022-08-03T18:45:57;4.65;;;1.55;;
60851;SDS011;48553;50.766;2.900;2022-08-03T18:49:02;7.93;;;1.73;;
60851;SDS011;48553;50.766;2.900;2022-08-03T18:52:15;7.53;;;1.60;;
60851;SDS011;48553;50.766;2.900;2022-08-03T18:55:18;4.53;;;1.60;;
60851;SDS011;48553;50.766;2.900;2022-08-03T18:58:26;5.60;;;1.50;;